createdAt,value
2018-12-12T00:01:41.234Z,8.27
2018-12-12T00:04:10.396Z,9.43
2018-12-12T00:06:38.600Z,8.97
2018-12-12T00:09:07.393Z,9.03
2018-12-12T00:11:35.792Z,11.07
2018-12-12T00:14:04.059Z,7.73
2018-12-12T00:16:32.219Z,10.90
2018-12-12T00:19:00.595Z,15.03
2018-12-12T00:21:28.770Z,11.93
2018-12-12T00:23:57.632Z,10.27
2018-12-12T00:26:25.829Z,8.70
2018-12-12T00:28:54.065Z,10.53
2018-12-12T00:31:22.277Z,9.30
2018-12-12T00:33:50.551Z,9.67
2018-12-12T00:36:19.314Z,8.90
2018-12-12T00:38:47.514Z,8.97
2018-12-12T00:41:15.691Z,10.00
2018-12-12T00:43:43.873Z,8.27
2018-12-12T00:46:12.237Z,9.03
2018-12-12T00:48:41.291Z,10.37
2018-12-12T00:51:09.503Z,7.93
2018-12-12T00:53:37.682Z,11.83
2018-12-12T00:56:05.869Z,10.17
2018-12-12T00:58:34.171Z,8.27
2018-12-12T01:01:02.882Z,11.17
2018-12-12T01:03:31.099Z,11.40
2018-12-12T01:05:59.254Z,9.57
2018-12-12T01:11:07.302Z,8.63
2018-12-12T01:13:35.512Z,9.47
2018-12-12T01:16:03.743Z,13.70
2018-12-12T01:18:31.901Z,10.40
2018-12-12T01:21:01.167Z,9.63
2018-12-12T01:23:29.318Z,11.23
2018-12-12T01:25:57.549Z,12.47
2018-12-12T01:28:26.195Z,11.30
2018-12-12T01:30:54.411Z,16.33
2018-12-12T01:33:22.695Z,14.10
2018-12-12T01:35:51.257Z,9.23
2018-12-12T01:38:19.448Z,7.97
2018-12-12T01:40:47.617Z,11.43
2018-12-12T01:43:15.842Z,8.00
2018-12-12T01:45:44.056Z,9.03
2018-12-12T01:48:12.440Z,9.27
2018-12-12T01:50:40.688Z,14.50
2018-12-12T01:53:08.824Z,13.50
2018-12-12T01:55:37.022Z,9.00
2018-12-12T01:58:05.200Z,13.57
2018-12-12T02:00:33.370Z,11.07
2018-12-12T02:03:01.603Z,13.00
2018-12-12T02:05:29.976Z,11.63
2018-12-12T02:07:58.623Z,11.90
2018-12-12T02:10:26.817Z,10.33
2018-12-12T02:13:06.336Z,11.27
2018-12-12T02:15:34.547Z,11.80
2018-12-12T02:18:02.705Z,11.77
2018-12-12T02:20:34.022Z,11.50
2018-12-12T02:23:02.246Z,13.50
2018-12-12T02:25:30.509Z,10.77
2018-12-12T02:27:59.025Z,9.43
2018-12-12T02:30:27.169Z,10.50
2018-12-12T02:32:55.783Z,7.27
2018-12-12T02:35:24.022Z,11.10
2018-12-12T02:37:52.295Z,8.70
2018-12-12T02:40:20.571Z,8.27
2018-12-12T02:42:48.837Z,7.70
2018-12-12T02:45:17.179Z,7.67
2018-12-12T02:47:45.400Z,10.50
2018-12-12T02:50:13.670Z,10.17
2018-12-12T02:52:42.698Z,9.73
2018-12-12T02:55:11.034Z,8.27
2018-12-12T02:57:40.629Z,7.07
2018-12-12T03:00:09.798Z,8.20
2018-12-12T03:16:51.884Z,15.07
2018-12-12T03:19:20.028Z,21.90
2018-12-12T03:21:50.024Z,45.43
2018-12-12T03:24:18.463Z,143.27
2018-12-12T03:26:46.672Z,163.17
2018-12-12T03:29:14.843Z,137.57
2018-12-12T03:31:43.000Z,222.37
2018-12-12T03:34:11.307Z,142.90
2018-12-12T03:36:39.583Z,102.87
2018-12-12T03:39:07.943Z,97.77
2018-12-12T03:41:36.127Z,31.43
2018-12-12T03:44:04.291Z,22.13
2018-12-12T03:46:32.575Z,15.73
2018-12-12T03:49:01.135Z,12.77
2018-12-12T03:51:29.287Z,30.30
2018-12-12T03:53:57.446Z,70.80
2018-12-12T03:56:25.729Z,54.47
2018-12-12T03:58:53.869Z,24.73
2018-12-12T04:01:22.004Z,44.70
2018-12-12T04:03:50.184Z,19.83
2018-12-12T04:06:18.379Z,46.10
2018-12-12T04:08:46.618Z,29.63
2018-12-12T04:11:14.766Z,41.30
2018-12-12T04:13:43.266Z,28.37
2018-12-12T04:16:11.972Z,120.07
2018-12-12T04:18:40.166Z,245.97
2018-12-12T04:21:08.438Z,112.97
2018-12-12T04:23:36.615Z,154.23
2018-12-12T04:26:04.789Z,168.10
2018-12-12T04:28:33.046Z,51.50
2018-12-12T04:31:01.435Z,42.37
2018-12-12T04:33:29.817Z,72.20
2018-12-12T04:35:58.031Z,110.70
2018-12-12T04:38:26.233Z,48.43
2018-12-12T04:40:54.435Z,99.20
2018-12-12T04:43:22.595Z,42.80
2018-12-12T04:45:50.760Z,24.40
2018-12-12T04:48:19.062Z,25.23
2018-12-12T04:50:47.447Z,36.03
2018-12-12T04:53:15.710Z,92.40
2018-12-12T04:55:43.893Z,101.90
2018-12-12T04:58:12.176Z,207.07
2018-12-12T05:00:40.330Z,297.03
2018-12-12T05:03:08.532Z,154.53
2018-12-12T05:05:36.698Z,231.93
2018-12-12T05:08:04.948Z,79.67
2018-12-12T05:10:33.128Z,224.60
2018-12-12T05:13:01.410Z,88.53
2018-12-12T05:15:29.591Z,121.40
2018-12-12T05:17:57.865Z,112.97
2018-12-12T05:20:26.080Z,44.63
2018-12-12T05:22:54.602Z,31.73
2018-12-12T05:25:22.899Z,17.50
2018-12-12T05:27:52.455Z,22.43
2018-12-12T05:30:20.662Z,24.47
2018-12-12T05:32:48.833Z,18.83
2018-12-12T05:35:17.018Z,15.77
2018-12-12T05:37:49.865Z,18.07
2018-12-12T05:40:15.601Z,14.80
2018-12-12T05:42:44.375Z,15.37
2018-12-12T05:45:12.575Z,24.93
2018-12-12T05:47:40.819Z,24.77
2018-12-12T05:50:09.175Z,33.97
2018-12-12T05:52:37.395Z,20.23
2018-12-12T05:55:06.193Z,19.37
2018-12-12T05:57:34.473Z,23.80
2018-12-12T06:00:02.852Z,18.00
2018-12-12T06:02:34.275Z,17.77
2018-12-12T06:05:02.427Z,18.80
2018-12-12T06:07:30.571Z,39.33
2018-12-12T06:09:58.755Z,23.63
2018-12-12T06:12:26.903Z,42.97
2018-12-12T06:14:55.063Z,41.43
2018-12-12T06:17:23.607Z,38.60
2018-12-12T06:19:52.088Z,29.13
2018-12-12T06:22:20.421Z,217.10
2018-12-12T06:24:48.608Z,39.70
2018-12-12T06:27:16.764Z,34.93
2018-12-12T06:29:44.938Z,25.37
2018-12-12T06:32:13.466Z,22.60
2018-12-12T06:34:41.668Z,22.63
2018-12-12T06:37:09.817Z,25.00
2018-12-12T06:39:38.295Z,20.73
2018-12-12T06:42:06.547Z,23.47
2018-12-12T06:44:34.692Z,22.60
2018-12-12T06:47:02.966Z,24.73
2018-12-12T06:49:31.213Z,25.10
2018-12-12T06:51:59.380Z,19.60
2018-12-12T06:54:27.545Z,21.57
2018-12-12T06:56:55.852Z,26.70
2018-12-12T06:59:24.013Z,23.10
2018-12-12T07:01:52.645Z,25.40
2018-12-12T07:04:20.799Z,18.03
2018-12-12T07:06:48.946Z,18.77
2018-12-12T07:09:17.224Z,13.90
2018-12-12T07:11:45.444Z,21.93
2018-12-12T07:14:17.111Z,34.93
2018-12-12T07:16:45.260Z,29.63
2018-12-12T07:19:13.464Z,26.50
2018-12-12T07:21:41.730Z,25.30
2018-12-12T07:24:09.921Z,26.27
2018-12-12T07:26:38.175Z,30.37
2018-12-12T07:29:06.322Z,27.67
2018-12-12T07:31:34.559Z,30.47
2018-12-12T07:34:04.772Z,28.90
2018-12-12T07:36:32.913Z,23.83
2018-12-12T07:39:01.138Z,23.17
2018-12-12T07:41:30.106Z,21.17
2018-12-12T07:43:58.303Z,24.07
2018-12-12T07:46:26.864Z,26.00
2018-12-12T07:48:55.225Z,17.87
2018-12-12T07:51:23.447Z,18.80
2018-12-12T07:53:51.867Z,21.07
2018-12-12T07:56:20.464Z,16.07
2018-12-12T07:58:48.607Z,14.13
2018-12-12T08:01:16.831Z,17.53
2018-12-12T08:03:45.510Z,15.53
2018-12-12T08:06:13.799Z,18.83
2018-12-12T08:08:41.953Z,15.67
2018-12-12T08:11:10.089Z,13.43
2018-12-12T08:13:38.240Z,14.40
2018-12-12T08:16:07.153Z,15.47
2018-12-12T08:18:35.294Z,14.70
2018-12-12T08:21:03.427Z,15.63
2018-12-12T08:23:32.222Z,15.37
2018-12-12T08:26:00.499Z,16.67
2018-12-12T08:28:28.700Z,16.90
2018-12-12T08:30:57.662Z,16.23
2018-12-12T08:33:25.868Z,19.20
2018-12-12T08:35:54.032Z,17.17
2018-12-12T08:38:22.213Z,18.90
2018-12-12T08:40:50.391Z,17.00
2018-12-12T08:43:18.629Z,22.20
2018-12-12T08:45:46.840Z,20.37
2018-12-12T08:48:15.001Z,19.13
2018-12-12T08:50:43.204Z,17.03
2018-12-12T08:53:11.467Z,22.17
2018-12-12T08:55:39.748Z,20.77
2018-12-12T08:58:08.693Z,16.90
2018-12-12T09:00:36.887Z,18.40
2018-12-12T09:03:05.172Z,22.37
2018-12-12T09:05:34.029Z,19.70
2018-12-12T09:08:02.918Z,23.40
2018-12-12T09:10:31.132Z,16.57
2018-12-12T09:12:59.844Z,21.17
2018-12-12T09:15:27.995Z,18.43
2018-12-12T09:17:56.149Z,17.50
2018-12-12T09:20:24.365Z,18.17
2018-12-12T09:22:52.506Z,19.47
2018-12-12T09:25:20.676Z,15.87
2018-12-12T09:27:48.821Z,15.83
2018-12-12T09:30:17.024Z,16.87
2018-12-12T09:32:45.211Z,17.03
2018-12-12T09:35:13.854Z,17.27
2018-12-12T09:37:42.047Z,18.30
2018-12-12T09:40:10.334Z,16.57
2018-12-12T09:42:38.544Z,19.70
2018-12-12T09:45:06.814Z,20.87
2018-12-12T09:47:35.059Z,21.23
2018-12-12T09:50:03.497Z,18.63
2018-12-12T09:52:31.711Z,17.50
2018-12-12T09:54:59.874Z,16.47
2018-12-12T09:57:28.067Z,17.80
2018-12-12T09:59:56.227Z,20.40
2018-12-12T10:02:24.982Z,14.30
2018-12-12T10:04:53.275Z,17.07
2018-12-12T10:07:21.466Z,14.00
2018-12-12T10:09:50.744Z,16.27
2018-12-12T10:12:18.940Z,15.60
2018-12-12T10:14:47.223Z,14.13
2018-12-12T10:17:15.681Z,15.33
2018-12-12T10:19:43.811Z,14.30
2018-12-12T10:22:12.036Z,13.60
2018-12-12T10:24:42.236Z,16.23
2018-12-12T10:27:10.442Z,18.60
2018-12-12T10:29:38.707Z,16.37
2018-12-12T10:32:06.996Z,15.73
2018-12-12T10:34:35.175Z,15.83
2018-12-12T10:37:03.711Z,15.27
2018-12-12T10:39:31.917Z,15.53
2018-12-12T10:42:00.099Z,14.30
2018-12-12T10:44:31.271Z,14.07
2018-12-12T10:46:59.472Z,14.40
2018-12-12T10:49:27.605Z,14.13
2018-12-12T10:51:55.866Z,14.20
2018-12-12T10:54:24.039Z,14.27
2018-12-12T10:56:52.366Z,12.97
2018-12-12T10:59:20.491Z,13.23
2018-12-12T11:01:48.655Z,12.23
2018-12-12T11:04:18.655Z,14.07
2018-12-12T11:06:46.947Z,15.47
2018-12-12T11:09:15.491Z,14.20
2018-12-12T11:11:43.691Z,15.67
2018-12-12T11:14:11.873Z,13.33
2018-12-12T11:16:40.052Z,12.30
2018-12-12T11:19:08.323Z,15.27
2018-12-12T11:21:36.871Z,16.17
2018-12-12T11:24:05.093Z,16.43
2018-12-12T11:26:34.171Z,14.40
2018-12-12T11:29:02.340Z,16.30
2018-12-12T11:31:30.631Z,14.13
2018-12-12T11:33:58.756Z,14.03
2018-12-12T11:36:26.936Z,15.33
2018-12-12T11:38:55.139Z,13.23
2018-12-12T11:41:23.417Z,13.03
2018-12-12T11:43:51.720Z,13.40
2018-12-12T11:46:19.868Z,12.57
2018-12-12T11:48:47.988Z,14.37
2018-12-12T11:51:16.174Z,14.43
2018-12-12T11:53:44.307Z,14.13
2018-12-12T11:56:12.456Z,13.60
2018-12-12T11:58:40.793Z,17.10
2018-12-12T12:01:09.109Z,13.87
2018-12-12T12:03:37.281Z,14.50
2018-12-12T12:06:06.855Z,14.07
2018-12-12T12:08:35.072Z,15.23
2018-12-12T12:11:03.347Z,14.77
2018-12-12T12:13:32.911Z,12.53
2018-12-12T12:16:01.132Z,16.67
2018-12-12T12:18:29.267Z,14.27
2018-12-12T12:20:57.493Z,15.13
2018-12-12T12:23:25.638Z,15.88
2018-12-12T12:25:53.814Z,13.83
2018-12-12T12:28:26.241Z,13.30
2018-12-12T12:30:54.375Z,14.97
2018-12-12T12:33:22.529Z,13.37
2018-12-12T12:35:50.825Z,14.43
2018-12-12T12:38:19.285Z,13.17
2018-12-12T12:40:47.467Z,13.10
2018-12-12T12:43:16.930Z,11.63
2018-12-12T12:45:45.127Z,12.27
2018-12-12T12:48:13.351Z,14.03
2018-12-12T12:50:42.418Z,12.43
2018-12-12T12:53:10.570Z,11.53
2018-12-12T12:55:38.764Z,10.17
2018-12-12T12:58:08.168Z,8.87
2018-12-12T13:00:36.330Z,8.37
2018-12-12T13:03:04.502Z,9.97
2018-12-12T13:05:32.687Z,10.27
2018-12-12T13:08:00.859Z,9.63
2018-12-12T13:10:29.240Z,9.60
2018-12-12T13:12:57.788Z,10.90
2018-12-12T13:15:26.373Z,10.70
2018-12-12T13:17:55.658Z,10.13
2018-12-12T13:20:23.778Z,8.10
2018-12-12T13:22:52.041Z,12.73
2018-12-12T13:25:20.226Z,12.50
2018-12-12T13:27:48.368Z,11.63
2018-12-12T13:30:16.556Z,10.67
2018-12-12T13:32:45.930Z,10.27
2018-12-12T13:35:14.161Z,10.80
2018-12-12T13:37:42.330Z,10.53
2018-12-12T13:40:10.474Z,12.57
2018-12-12T13:42:38.749Z,11.70
2018-12-12T13:45:08.027Z,12.53
2018-12-12T13:47:36.229Z,8.83
2018-12-12T13:50:04.621Z,9.53
2018-12-12T13:52:33.871Z,9.80
2018-12-12T13:55:02.093Z,10.07
2018-12-12T13:57:30.255Z,9.67
2018-12-12T13:59:59.110Z,12.80
2018-12-12T14:02:27.413Z,11.00
2018-12-12T14:04:56.478Z,13.00
2018-12-12T14:07:24.705Z,10.33
2018-12-12T14:09:52.860Z,12.70
2018-12-12T14:12:21.089Z,9.73
2018-12-12T14:14:49.349Z,8.50
2018-12-12T14:17:17.686Z,10.67
2018-12-12T14:19:45.962Z,9.90
2018-12-12T14:22:14.828Z,9.60
2018-12-12T14:24:43.131Z,9.10
2018-12-12T14:27:11.403Z,9.63
2018-12-12T14:29:39.761Z,9.97
2018-12-12T14:32:40.655Z,13.73
2018-12-12T14:35:14.394Z,11.03
2018-12-12T14:37:55.848Z,9.73
2018-12-12T14:40:24.062Z,11.10
2018-12-12T14:42:52.219Z,10.10
2018-12-12T14:45:20.443Z,9.33
2018-12-12T14:47:49.820Z,8.47
2018-12-12T14:50:17.945Z,9.70
2018-12-12T14:52:46.093Z,9.98
2018-12-12T14:55:14.839Z,8.77
2018-12-12T14:57:42.984Z,40.33
2018-12-12T15:00:11.205Z,10.30
2018-12-12T15:02:39.776Z,8.97
2018-12-12T15:05:08.016Z,11.03
2018-12-12T15:07:36.195Z,12.13
2018-12-12T15:10:05.734Z,11.00
2018-12-12T15:12:33.875Z,7.70
2018-12-12T15:15:02.110Z,11.43
2018-12-12T15:17:30.312Z,10.53
2018-12-12T15:19:58.500Z,9.87
2018-12-12T15:22:27.008Z,13.17
2018-12-12T15:24:55.137Z,9.77
2018-12-12T15:27:23.278Z,10.90
2018-12-12T15:29:51.926Z,9.13
2018-12-12T15:32:20.099Z,8.40
2018-12-12T15:34:48.276Z,9.17
2018-12-12T15:37:16.684Z,9.30
2018-12-12T15:39:44.899Z,9.63
2018-12-12T15:42:13.035Z,7.77
2018-12-12T15:44:41.569Z,8.27
2018-12-12T15:47:09.790Z,9.20
2018-12-12T15:49:38.019Z,9.33
2018-12-12T15:52:06.196Z,7.17
2018-12-12T15:54:34.304Z,6.60
2018-12-12T15:57:02.539Z,6.80
2018-12-12T15:59:30.674Z,8.30
2018-12-12T16:01:58.813Z,5.37
2018-12-12T16:04:27.087Z,4.60
2018-12-12T16:06:55.220Z,5.00
2018-12-12T16:09:23.437Z,6.10
2018-12-12T16:11:51.639Z,6.30
2018-12-12T16:14:19.785Z,6.70
2018-12-12T16:16:47.953Z,5.30
2018-12-12T16:19:16.158Z,5.33
2018-12-12T16:21:44.278Z,5.43
2018-12-12T16:24:12.495Z,4.77
2018-12-12T16:26:40.931Z,5.70
2018-12-12T16:29:09.142Z,5.97
2018-12-12T16:31:37.716Z,5.07
2018-12-12T16:34:06.032Z,5.10
2018-12-12T16:36:34.161Z,6.70
2018-12-12T16:39:02.295Z,7.33
2018-12-12T16:41:31.401Z,5.83
2018-12-12T16:43:59.561Z,5.33
2018-12-12T16:46:27.691Z,7.83
2018-12-12T16:48:56.003Z,6.63
2018-12-12T16:51:24.225Z,6.80
2018-12-12T16:53:52.421Z,6.70
2018-12-12T16:56:20.577Z,5.50
2018-12-12T16:58:48.857Z,7.10
2018-12-12T17:01:17.709Z,7.37
2018-12-12T17:03:45.823Z,6.13
2018-12-12T17:06:13.978Z,6.43
2018-12-12T17:08:42.190Z,6.03
2018-12-12T17:11:10.329Z,7.17
2018-12-12T17:13:38.493Z,7.07
2018-12-12T17:16:06.772Z,5.67
2018-12-12T17:18:35.099Z,6.47
2018-12-12T17:21:03.261Z,7.00
2018-12-12T17:23:32.019Z,6.47
2018-12-12T17:26:00.512Z,5.60
2018-12-12T17:28:29.622Z,6.93
2018-12-12T17:30:58.883Z,7.47
2018-12-12T17:33:27.086Z,7.83
2018-12-12T17:35:55.313Z,6.60
2018-12-12T17:38:23.558Z,8.47
2018-12-12T17:40:51.711Z,6.30
2018-12-12T17:43:20.538Z,6.70
2018-12-12T17:45:49.147Z,7.50
2018-12-12T17:48:17.378Z,7.70
2018-12-12T17:50:45.653Z,6.63
2018-12-12T17:53:14.492Z,7.00
2018-12-12T17:55:42.806Z,6.60
2018-12-12T17:58:11.215Z,6.57
2018-12-12T18:00:39.715Z,7.07
2018-12-12T18:03:07.970Z,8.70
2018-12-12T18:05:36.207Z,7.33
2018-12-12T18:08:04.762Z,9.60
2018-12-12T18:10:32.973Z,8.90
2018-12-12T18:13:01.155Z,7.73
2018-12-12T18:15:29.464Z,7.73
2018-12-12T18:17:57.627Z,6.97
2018-12-12T18:20:26.154Z,8.17
2018-12-12T18:22:54.355Z,7.90
2018-12-12T18:25:22.625Z,8.77
2018-12-12T18:27:50.814Z,8.00
2018-12-12T18:30:19.594Z,9.07
2018-12-12T18:32:48.898Z,8.20
2018-12-12T18:35:21.815Z,8.17
2018-12-12T18:37:47.733Z,8.00
2018-12-12T18:40:16.117Z,7.70
2018-12-12T18:42:44.631Z,7.05
2018-12-12T18:45:13.366Z,8.03
2018-12-12T18:47:41.529Z,7.13
2018-12-12T18:50:10.589Z,8.27
2018-12-12T18:52:38.893Z,7.40
2018-12-12T18:55:07.146Z,6.43
2018-12-12T18:57:35.501Z,7.73
2018-12-12T19:00:03.897Z,7.07
2018-12-12T19:02:32.105Z,7.50
2018-12-12T19:05:00.358Z,7.87
2018-12-12T19:07:28.529Z,8.53
2018-12-12T19:09:56.690Z,7.80
2018-12-12T19:12:25.513Z,6.90
2018-12-12T19:15:03.265Z,7.40
2018-12-12T19:17:31.531Z,7.37
2018-12-12T19:19:59.706Z,6.43
2018-12-12T19:22:27.857Z,8.80
2018-12-12T19:24:56.440Z,7.97
2018-12-12T19:27:25.010Z,9.40
2018-12-12T19:29:53.263Z,11.20
2018-12-12T19:32:21.410Z,10.37
2018-12-12T19:34:50.032Z,9.50
2018-12-12T19:37:19.147Z,8.50
2018-12-12T19:39:47.436Z,8.33
2018-12-12T19:42:15.613Z,8.07
2018-12-12T19:44:43.847Z,9.93
2018-12-12T19:47:12.213Z,9.33
2018-12-12T19:49:40.378Z,9.23
2018-12-12T19:52:08.670Z,11.47
2018-12-12T19:54:36.970Z,9.83
2018-12-12T19:57:05.142Z,11.53
2018-12-12T19:59:33.896Z,11.60
2018-12-12T20:02:03.719Z,10.23
2018-12-12T20:04:32.056Z,10.60
2018-12-12T20:07:00.753Z,11.70
2018-12-12T20:09:29.991Z,13.40
2018-12-12T20:11:58.199Z,11.27
2018-12-12T20:14:26.473Z,12.30
2018-12-12T20:16:55.390Z,10.83
2018-12-12T20:19:23.576Z,9.67
2018-12-12T20:21:51.840Z,12.33
2018-12-12T20:24:21.172Z,9.93
2018-12-12T20:26:49.892Z,10.60
2018-12-12T20:29:22.479Z,9.83
2018-12-12T20:31:53.017Z,18.13
2018-12-12T20:34:21.268Z,22.00
2018-12-12T20:36:51.173Z,16.87
2018-12-12T20:39:21.723Z,13.50
2018-12-12T20:41:50.188Z,8.93
2018-12-12T20:44:18.356Z,9.53
2018-12-12T20:46:46.584Z,10.93
2018-12-12T20:49:14.787Z,12.40
2018-12-12T20:51:42.968Z,10.27
2018-12-12T20:54:15.034Z,12.90
2018-12-12T20:56:44.187Z,13.33
2018-12-12T20:59:12.830Z,14.07
2018-12-12T21:01:41.189Z,14.10
2018-12-12T21:04:09.390Z,14.77
2018-12-12T21:06:37.553Z,17.37
2018-12-12T21:09:07.961Z,13.13
2018-12-12T21:11:36.249Z,14.23
2018-12-12T21:14:04.440Z,13.13
2018-12-12T21:16:32.764Z,14.50
2018-12-12T21:19:01.106Z,10.20
2018-12-12T21:21:29.295Z,10.47
2018-12-12T21:23:57.507Z,10.33
2018-12-12T21:26:26.387Z,9.97
2018-12-12T21:28:54.562Z,9.43
2018-12-12T21:31:22.748Z,10.63
2018-12-12T21:33:51.235Z,11.70
2018-12-12T21:36:19.413Z,11.60
2018-12-12T21:38:48.569Z,14.37
2018-12-12T21:41:16.789Z,10.63
2018-12-12T21:43:45.046Z,11.90
2018-12-12T21:46:13.242Z,12.50
2018-12-12T21:48:41.441Z,13.40
2018-12-12T21:51:09.611Z,11.50
2018-12-12T21:53:37.791Z,12.03
2018-12-12T21:56:06.038Z,13.93
2018-12-12T21:58:34.238Z,14.47
2018-12-12T22:01:02.465Z,11.33
2018-12-12T22:03:30.638Z,10.33
2018-12-12T22:05:58.985Z,11.23
2018-12-12T22:08:27.286Z,9.33
2018-12-12T22:10:55.931Z,11.30
2018-12-12T22:13:24.090Z,9.77
2018-12-12T22:15:52.410Z,9.27
2018-12-12T22:18:20.595Z,10.80
2018-12-12T22:20:48.745Z,8.73
2018-12-12T22:23:17.080Z,8.60
2018-12-12T22:25:45.256Z,9.57
2018-12-12T22:28:13.480Z,9.67
2018-12-12T22:30:42.851Z,9.00
2018-12-12T22:33:11.030Z,10.77
2018-12-12T22:35:39.212Z,9.80
2018-12-12T22:38:07.522Z,8.37
2018-12-12T22:40:36.170Z,8.17
2018-12-12T22:43:04.325Z,8.50
2018-12-12T22:45:32.907Z,8.40
2018-12-12T22:48:01.408Z,9.43
2018-12-12T22:50:29.576Z,9.17
2018-12-12T22:52:58.358Z,9.30
2018-12-12T22:55:26.563Z,7.97
2018-12-12T22:57:54.735Z,9.13
2018-12-12T23:00:28.401Z,8.33
2018-12-12T23:02:56.603Z,7.17
2018-12-12T23:05:24.755Z,7.70
2018-12-12T23:07:52.923Z,7.10
2018-12-12T23:10:21.059Z,7.40
2018-12-12T23:12:49.191Z,6.43
2018-12-12T23:15:17.730Z,7.07
2018-12-12T23:17:45.940Z,7.73
2018-12-12T23:20:14.111Z,8.63
2018-12-12T23:22:42.299Z,7.50
2018-12-12T23:25:10.463Z,7.43
2018-12-12T23:27:38.639Z,8.20
2018-12-12T23:30:07.953Z,6.97
2018-12-12T23:32:36.083Z,7.37
2018-12-12T23:35:04.465Z,7.07
2018-12-12T23:37:32.659Z,7.37
2018-12-12T23:40:01.052Z,6.90
2018-12-12T23:42:29.715Z,6.90
2018-12-12T23:44:57.983Z,6.47
2018-12-12T23:47:26.129Z,8.13
2018-12-12T23:49:54.340Z,6.60
2018-12-12T23:52:22.526Z,7.30
2018-12-12T23:54:50.966Z,6.53
2018-12-12T23:57:19.167Z,7.40
2018-12-12T23:59:47.449Z,6.93
